createdAt,value
2023-02-13T00:01:52.703Z,50.58
2023-02-13T00:04:19.116Z,45.28
2023-02-13T00:06:47.717Z,46.88
2023-02-13T00:09:14.644Z,42.85
2023-02-13T00:11:41.013Z,47.42
2023-02-13T00:14:07.448Z,45.53
2023-02-13T00:16:34.384Z,49.38
2023-02-13T00:19:00.785Z,43.47
2023-02-13T00:21:27.208Z,47.03
2023-02-13T00:23:53.619Z,44.70
2023-02-13T00:26:20.058Z,47.47
2023-02-13T00:28:46.489Z,46.63
2023-02-13T00:31:15.696Z,43.20
2023-02-13T00:33:42.420Z,49.58
2023-02-13T00:36:20.483Z,48.70
2023-02-13T00:38:47.459Z,44.45
2023-02-13T00:41:14.786Z,48.90
2023-02-13T00:43:41.150Z,53.20
2023-02-13T00:46:07.675Z,52.67
2023-02-13T00:48:34.931Z,48.15
2023-02-13T00:51:01.860Z,43.35
2023-02-13T00:53:28.378Z,46.30
2023-02-13T00:55:54.776Z,50.70
2023-02-13T00:58:21.730Z,45.83
2023-02-13T01:00:48.396Z,45.67
2023-02-13T01:03:15.916Z,46.90
2023-02-13T01:05:43.165Z,46.10
2023-02-13T01:08:10.248Z,45.28
2023-02-13T01:10:40.683Z,46.92
2023-02-13T01:13:07.408Z,49.55
2023-02-13T01:15:34.094Z,44.60
2023-02-13T01:18:00.917Z,47.22
2023-02-13T01:20:28.500Z,48.33
2023-02-13T01:22:55.346Z,45.55
2023-02-13T01:25:22.125Z,47.42
2023-02-13T01:27:48.521Z,46.88
2023-02-13T01:30:16.011Z,45.80
2023-02-13T01:32:43.537Z,50.22
2023-02-13T01:35:11.238Z,42.92
2023-02-13T01:37:38.919Z,50.03
2023-02-13T01:40:07.301Z,47.33
2023-02-13T01:42:35.074Z,51.10
2023-02-13T01:45:04.399Z,50.55
2023-02-13T01:47:45.497Z,43.17
2023-02-13T01:50:19.228Z,41.13
2023-02-13T01:52:49.893Z,48.40
2023-02-13T01:55:16.979Z,44.92
2023-02-13T01:57:47.166Z,46.70
2023-02-13T02:00:15.811Z,46.65
2023-02-13T02:02:46.895Z,43.97
2023-02-13T02:05:13.482Z,47.50
2023-02-13T02:07:41.426Z,62.20
2023-02-13T02:10:18.791Z,50.15
2023-02-13T02:12:53.684Z,52.35
2023-02-13T02:15:20.190Z,79.05
2023-02-13T02:17:46.682Z,62.50
2023-02-13T02:20:43.942Z,60.97
2023-02-13T02:23:44.500Z,53.13
2023-02-13T02:26:41.954Z,58.22
2023-02-13T02:29:34.322Z,59.60
2023-02-13T02:32:19.448Z,50.65
2023-02-13T02:34:58.601Z,40.15
2023-02-13T02:37:56.312Z,47.47
2023-02-13T02:40:57.821Z,44.53
2023-02-13T02:43:44.018Z,36.03
2023-02-13T02:46:21.407Z,37.42
2023-02-13T02:49:22.658Z,35.17
2023-02-13T02:52:01.960Z,37.60
2023-02-13T02:55:03.138Z,36.42
2023-02-13T02:57:51.590Z,32.65
2023-02-13T03:00:39.076Z,35.70
2023-02-13T03:03:30.536Z,28.95
2023-02-13T03:06:13.837Z,26.50
2023-02-13T03:09:00.826Z,27.63
2023-02-13T03:11:46.508Z,28.45
2023-02-13T03:14:15.212Z,25.75
2023-02-13T03:17:00.138Z,23.35
2023-02-13T03:19:54.225Z,22.40
2023-02-13T03:22:37.152Z,19.90
2023-02-13T03:25:18.752Z,21.63
2023-02-13T03:28:17.938Z,21.15
2023-02-13T03:31:00.943Z,19.38
2023-02-13T03:33:34.349Z,20.00
2023-02-13T03:37:02.169Z,17.27
2023-02-13T03:39:48.570Z,19.40
2023-02-13T03:42:54.037Z,18.92
2023-02-13T03:45:50.098Z,18.73
2023-02-13T03:48:49.228Z,19.52
2023-02-13T03:51:24.965Z,23.73
2023-02-13T03:53:56.172Z,20.13
2023-02-13T03:56:41.770Z,16.47
2023-02-13T03:59:17.039Z,16.65
2023-02-13T04:01:51.842Z,18.48
2023-02-13T04:04:25.687Z,19.58
2023-02-13T04:07:00.155Z,12.60
2023-02-13T04:09:28.302Z,15.32
2023-02-13T04:12:06.452Z,12.02
2023-02-13T04:14:51.511Z,12.63
2023-02-13T04:17:23.572Z,13.73
2023-02-13T04:19:50.117Z,12.55
2023-02-13T04:22:16.640Z,13.52
2023-02-13T04:24:43.085Z,11.55
2023-02-13T04:27:13.995Z,13.18
2023-02-13T04:29:40.387Z,10.88
2023-02-13T04:32:06.800Z,11.35
2023-02-13T04:34:33.225Z,12.38
2023-02-13T04:36:59.582Z,9.32
2023-02-13T04:39:25.998Z,10.45
2023-02-13T04:41:52.382Z,11.07
2023-02-13T04:44:18.748Z,11.73
2023-02-13T04:46:45.147Z,9.77
2023-02-13T04:49:11.579Z,9.95
2023-02-13T04:51:38.066Z,10.13
2023-02-13T04:54:04.555Z,10.93
2023-02-13T04:56:30.935Z,10.23
2023-02-13T04:58:57.287Z,9.68
2023-02-13T05:01:23.792Z,8.88
2023-02-13T05:03:50.227Z,8.43
2023-02-13T05:06:16.564Z,7.78
2023-02-13T05:08:43.186Z,8.45
2023-02-13T05:11:09.692Z,8.65
2023-02-13T05:13:36.173Z,8.85
2023-02-13T05:16:02.621Z,10.25
2023-02-13T05:18:28.990Z,9.10
2023-02-13T05:21:13.910Z,8.82
2023-02-13T05:23:40.478Z,10.77
2023-02-13T05:26:06.824Z,11.02
2023-02-13T05:28:51.731Z,10.80
2023-02-13T05:31:18.153Z,10.15
2023-02-13T05:33:44.612Z,11.50
2023-02-13T05:36:11.037Z,9.73
2023-02-13T05:38:37.429Z,9.77
2023-02-13T05:41:03.824Z,11.38
2023-02-13T05:43:30.600Z,11.35
2023-02-13T05:46:07.991Z,13.52
2023-02-13T05:48:34.543Z,10.55
2023-02-13T05:51:01.370Z,12.60
2023-02-13T05:53:27.775Z,14.23
2023-02-13T05:55:54.145Z,11.57
2023-02-13T05:58:20.921Z,11.95
2023-02-13T06:00:47.659Z,11.95
2023-02-13T06:03:14.647Z,10.70
2023-02-13T06:05:41.177Z,11.88
2023-02-13T06:08:07.573Z,11.65
2023-02-13T06:10:33.938Z,11.85
2023-02-13T06:13:00.385Z,12.50
2023-02-13T06:15:26.783Z,12.50
2023-02-13T06:17:53.217Z,10.50
2023-02-13T06:20:19.690Z,15.73
2023-02-13T06:22:50.653Z,11.27
2023-02-13T06:25:17.277Z,12.50
2023-02-13T06:27:43.684Z,12.05
2023-02-13T06:30:10.624Z,13.68
2023-02-13T06:32:37.010Z,13.63
2023-02-13T06:35:05.567Z,13.35
2023-02-13T06:37:32.353Z,14.40
2023-02-13T06:39:58.749Z,13.15
2023-02-13T06:42:25.221Z,14.25
2023-02-13T06:44:51.827Z,16.83
2023-02-13T06:47:18.221Z,28.83
2023-02-13T06:49:44.612Z,23.25
2023-02-13T06:52:10.985Z,19.70
2023-02-13T06:54:46.760Z,16.08
2023-02-13T06:57:14.264Z,16.73
2023-02-13T06:59:40.636Z,22.23
2023-02-13T07:02:07.126Z,21.10
2023-02-13T07:04:33.498Z,17.15
2023-02-13T07:06:59.867Z,13.80
2023-02-13T07:09:26.374Z,16.77
2023-02-13T07:11:52.762Z,15.95
2023-02-13T07:14:19.150Z,14.55
2023-02-13T07:16:45.509Z,16.77
2023-02-13T07:19:12.009Z,14.52
2023-02-13T07:21:38.413Z,16.02
2023-02-13T07:24:07.893Z,13.77
2023-02-13T07:26:34.458Z,14.57
2023-02-13T07:29:11.539Z,15.30
2023-02-13T07:31:39.234Z,18.67
2023-02-13T07:34:05.856Z,15.55
2023-02-13T07:36:32.229Z,15.23
2023-02-13T07:38:58.606Z,14.95
2023-02-13T07:41:27.883Z,18.00
2023-02-13T07:43:55.396Z,16.33
2023-02-13T07:46:21.925Z,18.05
2023-02-13T07:48:48.450Z,15.07
2023-02-13T07:51:15.880Z,13.25
2023-02-13T07:53:42.278Z,17.50
2023-02-13T07:56:09.419Z,16.17
2023-02-13T07:58:37.834Z,15.05
2023-02-13T08:01:09.250Z,16.25
2023-02-13T08:03:36.131Z,16.33
2023-02-13T08:06:02.921Z,17.13
2023-02-13T08:08:29.341Z,20.25
2023-02-13T08:11:14.657Z,17.98
2023-02-13T08:13:41.344Z,18.35
2023-02-13T08:16:07.799Z,19.00
2023-02-13T08:18:34.177Z,19.15
2023-02-13T08:21:03.497Z,18.40
2023-02-13T08:23:29.919Z,17.17
2023-02-13T08:26:00.084Z,17.25
2023-02-13T08:28:26.895Z,16.40
2023-02-13T08:30:53.372Z,14.55
2023-02-13T08:33:19.759Z,16.30
2023-02-13T08:35:46.134Z,17.80
2023-02-13T08:38:12.618Z,18.77
2023-02-13T08:40:39.046Z,18.48
2023-02-13T08:43:06.341Z,17.45
2023-02-13T08:45:33.100Z,15.95
2023-02-13T08:48:00.465Z,18.00
2023-02-13T08:50:27.747Z,14.65
2023-02-13T08:52:54.294Z,16.75
2023-02-13T08:55:20.803Z,18.88
2023-02-13T08:57:47.257Z,20.40
2023-02-13T09:00:14.584Z,27.98
2023-02-13T09:02:41.070Z,20.42
2023-02-13T09:05:07.705Z,19.48
2023-02-13T09:07:34.136Z,18.63
2023-02-13T09:10:00.577Z,16.73
2023-02-13T09:12:26.970Z,16.60
2023-02-13T09:14:53.362Z,16.05
2023-02-13T09:17:19.762Z,15.80
2023-02-13T09:19:47.271Z,16.42
2023-02-13T09:22:15.375Z,15.38
2023-02-13T09:24:41.744Z,16.15
2023-02-13T09:27:08.824Z,17.42
2023-02-13T09:29:35.260Z,18.15
2023-02-13T09:32:01.704Z,15.20
2023-02-13T09:34:28.167Z,19.55
2023-02-13T09:36:54.683Z,17.25
2023-02-13T09:39:21.101Z,13.43
2023-02-13T09:41:50.042Z,22.80
2023-02-13T09:44:35.682Z,14.98
2023-02-13T09:47:14.927Z,17.67
2023-02-13T09:49:44.690Z,16.58
2023-02-13T09:52:11.301Z,14.85
2023-02-13T09:54:37.925Z,18.30
2023-02-13T09:57:27.881Z,13.65
2023-02-13T10:00:01.975Z,22.02
2023-02-13T10:02:34.182Z,17.88
2023-02-13T10:07:51.048Z,18.63
2023-02-13T10:10:28.421Z,13.27
2023-02-13T10:12:57.612Z,14.77
2023-02-13T10:15:39.198Z,14.88
2023-02-13T10:18:31.933Z,15.27
2023-02-13T10:21:02.345Z,13.48
2023-02-13T10:23:35.100Z,13.02
2023-02-13T10:26:04.180Z,14.95
2023-02-13T10:28:35.189Z,14.18
2023-02-13T10:31:06.789Z,15.27
2023-02-13T10:33:56.269Z,13.18
2023-02-13T10:36:26.726Z,11.48
2023-02-13T10:39:00.570Z,11.73
2023-02-13T10:41:48.116Z,12.32
2023-02-13T10:44:32.783Z,12.52
2023-02-13T10:47:44.901Z,11.27
2023-02-13T10:50:27.228Z,10.65
2023-02-13T10:55:54.481Z,13.80
2023-02-13T10:58:28.914Z,10.05
2023-02-13T11:00:57.850Z,9.90
2023-02-13T11:03:28.529Z,9.18
2023-02-13T11:05:56.278Z,9.65
2023-02-13T11:08:24.260Z,8.07
2023-02-13T11:10:51.752Z,6.75
2023-02-13T11:13:20.752Z,7.78
2023-02-13T11:16:04.046Z,6.47
2023-02-13T11:18:39.889Z,9.77
2023-02-13T11:21:08.420Z,6.55
2023-02-13T11:23:41.026Z,9.65
2023-02-13T11:26:10.582Z,6.28
2023-02-13T11:28:39.998Z,7.70
2023-02-13T11:31:20.531Z,6.57
2023-02-13T11:33:47.063Z,6.07
2023-02-13T11:36:38.193Z,6.47
2023-02-13T11:39:18.655Z,8.07
2023-02-13T11:41:46.379Z,8.20
2023-02-13T11:44:24.059Z,5.85
2023-02-13T11:46:52.697Z,6.80
2023-02-13T11:49:21.637Z,7.53
2023-02-13T11:51:53.202Z,8.00
2023-02-13T11:54:39.294Z,9.60
2023-02-13T11:57:22.398Z,9.23
2023-02-13T11:59:51.594Z,7.50
2023-02-13T12:02:22.596Z,8.55
2023-02-13T12:04:54.630Z,7.40
2023-02-13T12:07:23.610Z,7.97
2023-02-13T12:10:19.176Z,7.75
2023-02-13T12:12:48.307Z,9.23
2023-02-13T12:15:21.027Z,7.13
2023-02-13T12:17:53.694Z,7.57
2023-02-13T12:20:20.830Z,6.95
2023-02-13T12:23:05.796Z,6.43
2023-02-13T12:25:35.237Z,8.82
2023-02-13T12:28:17.284Z,6.78
2023-02-13T12:31:09.548Z,8.63
2023-02-13T12:34:08.120Z,7.40
2023-02-13T12:36:50.600Z,8.00
2023-02-13T12:39:36.621Z,7.78
2023-02-13T12:42:22.327Z,8.20
2023-02-13T12:45:03.194Z,7.90
2023-02-13T12:47:31.605Z,11.77
2023-02-13T12:50:35.120Z,9.00
2023-02-13T12:53:28.424Z,8.05
2023-02-13T12:56:02.069Z,7.93
2023-02-13T12:58:53.364Z,9.82
2023-02-13T13:01:41.502Z,8.45
2023-02-13T13:04:16.803Z,8.10
2023-02-13T13:06:46.158Z,8.13
2023-02-13T13:09:41.880Z,7.30
2023-02-13T13:12:34.449Z,8.90
2023-02-13T13:18:20.152Z,8.55
2023-02-13T13:21:05.033Z,6.93
2023-02-13T13:23:33.852Z,7.38
2023-02-13T13:26:09.240Z,7.90
2023-02-13T13:28:39.265Z,8.10
2023-02-13T13:31:06.000Z,6.85
2023-02-13T13:33:33.605Z,8.57
2023-02-13T13:36:21.848Z,8.52
2023-02-13T13:38:59.996Z,9.68
2023-02-13T13:42:02.305Z,7.97
2023-02-13T13:44:42.124Z,8.55
2023-02-13T13:47:24.114Z,8.73
2023-02-13T13:49:58.936Z,8.07
2023-02-13T13:52:34.053Z,8.73
2023-02-13T13:55:02.527Z,9.05
2023-02-13T13:57:41.017Z,7.30
2023-02-13T14:00:07.624Z,7.45
2023-02-13T14:02:48.833Z,10.55
2023-02-13T14:05:32.677Z,8.27
2023-02-13T14:08:01.262Z,8.40
2023-02-13T14:10:27.531Z,10.13
2023-02-13T14:12:56.781Z,6.93
2023-02-13T14:15:38.408Z,8.27
2023-02-13T14:18:13.738Z,7.82
2023-02-13T14:20:52.274Z,8.55
2023-02-13T14:23:42.919Z,6.82
2023-02-13T14:26:17.646Z,6.85
2023-02-13T14:28:49.929Z,6.07
2023-02-13T14:31:27.441Z,5.72
2023-02-13T14:33:58.328Z,6.60
2023-02-13T14:36:32.137Z,5.22
2023-02-13T14:39:02.088Z,6.40
2023-02-13T14:41:44.317Z,5.47
2023-02-13T14:44:32.728Z,5.35
2023-02-13T14:47:03.172Z,5.18
2023-02-13T14:49:32.551Z,5.15
2023-02-13T14:52:02.670Z,6.32
2023-02-13T14:54:33.098Z,7.10
2023-02-13T14:57:12.168Z,6.78
2023-02-13T14:59:40.838Z,4.82
2023-02-13T15:02:22.705Z,7.20
2023-02-13T15:05:02.372Z,7.85
2023-02-13T15:07:36.044Z,5.78
2023-02-13T15:10:06.147Z,8.20
2023-02-13T15:12:35.000Z,6.22
2023-02-13T15:15:02.933Z,8.02
2023-02-13T15:17:41.024Z,8.43
2023-02-13T15:20:43.140Z,7.85
2023-02-13T15:23:20.587Z,8.45
2023-02-13T15:25:47.076Z,10.93
2023-02-13T15:28:19.956Z,7.22
2023-02-13T15:31:03.468Z,8.20
2023-02-13T15:33:53.672Z,7.50
2023-02-13T15:36:27.982Z,7.75
2023-02-13T15:39:03.752Z,8.88
2023-02-13T15:41:35.973Z,9.55
2023-02-13T15:46:35.427Z,8.02
2023-02-13T15:49:07.178Z,8.57
2023-02-13T15:51:34.688Z,8.48
2023-02-13T15:54:03.983Z,7.70
2023-02-13T15:56:31.412Z,8.68
2023-02-13T15:58:59.092Z,7.13
2023-02-13T16:01:25.476Z,9.85
2023-02-13T16:04:03.438Z,9.18
2023-02-13T16:06:30.215Z,8.45
2023-02-13T16:08:58.293Z,8.85
2023-02-13T16:11:24.681Z,9.27
2023-02-13T16:13:57.891Z,8.05
2023-02-13T16:16:24.833Z,8.13
2023-02-13T16:18:51.743Z,9.32
2023-02-13T16:21:25.475Z,9.75
2023-02-13T16:24:01.038Z,8.10
2023-02-13T16:26:27.603Z,10.70
2023-02-13T16:28:55.669Z,9.23
2023-02-13T16:31:22.600Z,9.20
2023-02-13T16:33:49.417Z,9.18
2023-02-13T16:36:15.734Z,16.92
2023-02-13T16:38:51.165Z,20.20
2023-02-13T16:41:17.497Z,16.30
2023-02-13T16:43:48.736Z,13.30
2023-02-13T16:46:15.009Z,12.17
2023-02-13T16:48:42.369Z,11.75
2023-02-13T16:51:08.836Z,13.13
2023-02-13T16:53:35.692Z,11.60
2023-02-13T16:56:13.102Z,11.60
2023-02-13T16:58:39.778Z,15.57
2023-02-13T17:01:06.306Z,10.55
2023-02-13T17:03:32.877Z,11.82
2023-02-13T17:06:03.260Z,13.85
2023-02-13T17:08:30.914Z,16.08
2023-02-13T17:11:05.953Z,12.65
2023-02-13T17:13:33.157Z,16.48
2023-02-13T17:16:00.035Z,18.75
2023-02-13T17:18:27.424Z,14.50
2023-02-13T17:20:54.189Z,21.10
2023-02-13T17:23:25.046Z,18.00
2023-02-13T17:25:53.672Z,18.50
2023-02-13T17:28:25.525Z,18.48
2023-02-13T17:30:54.241Z,26.48
2023-02-13T17:33:25.730Z,27.42
2023-02-13T17:35:52.489Z,17.08
2023-02-13T17:38:18.891Z,19.58
2023-02-13T17:40:45.582Z,17.77
2023-02-13T17:43:13.213Z,15.52
2023-02-13T17:45:39.918Z,16.10
2023-02-13T17:48:06.480Z,16.77
2023-02-13T17:50:33.870Z,20.27
2023-02-13T17:53:05.736Z,19.10
2023-02-13T17:55:33.388Z,21.15
2023-02-13T17:58:00.149Z,19.35
2023-02-13T18:00:29.081Z,18.80
2023-02-13T18:02:56.513Z,16.33
2023-02-13T18:05:22.908Z,22.95
2023-02-13T18:07:49.476Z,21.17
2023-02-13T18:10:36.920Z,22.48
2023-02-13T18:13:04.360Z,21.05
2023-02-13T18:15:35.922Z,24.70
2023-02-13T18:18:02.334Z,24.50
2023-02-13T18:20:28.730Z,21.85
2023-02-13T18:22:55.082Z,19.45
2023-02-13T18:25:21.800Z,21.13
2023-02-13T18:27:48.444Z,23.70
2023-02-13T18:30:18.323Z,22.48
2023-02-13T18:32:44.736Z,20.73
2023-02-13T18:35:11.309Z,21.38
2023-02-13T18:37:39.044Z,19.30
2023-02-13T18:40:07.763Z,18.67
2023-02-13T18:42:35.817Z,21.30
2023-02-13T18:45:02.897Z,22.95
2023-02-13T18:47:29.271Z,23.40
2023-02-13T18:49:55.602Z,27.02
2023-02-13T18:52:21.979Z,22.48
2023-02-13T18:54:48.334Z,25.27
2023-02-13T18:57:14.996Z,22.90
2023-02-13T18:59:41.361Z,23.52
2023-02-13T19:02:09.483Z,23.35
2023-02-13T19:04:35.910Z,24.85
2023-02-13T19:07:02.254Z,27.70
2023-02-13T19:09:28.675Z,24.33
2023-02-13T19:11:55.245Z,23.10
2023-02-13T19:14:22.593Z,26.55
2023-02-13T19:16:48.948Z,28.55
2023-02-13T19:19:15.299Z,27.80
2023-02-13T19:21:41.742Z,28.67
2023-02-13T19:24:09.560Z,28.63
2023-02-13T19:26:36.450Z,25.27
2023-02-13T19:29:03.536Z,33.40
2023-02-13T19:31:30.898Z,25.73
2023-02-13T19:33:57.370Z,28.95
2023-02-13T19:36:26.031Z,33.40
2023-02-13T19:39:00.922Z,28.65
2023-02-13T19:41:28.899Z,28.73
2023-02-13T19:43:55.880Z,27.52
2023-02-13T19:46:24.804Z,25.48
2023-02-13T19:48:51.203Z,27.90
2023-02-13T19:51:24.329Z,27.55
2023-02-13T19:54:01.325Z,26.27
2023-02-13T19:56:28.688Z,31.10
2023-02-13T19:58:55.471Z,29.70
2023-02-13T20:01:23.902Z,26.92
2023-02-13T20:03:50.794Z,29.10
2023-02-13T20:06:31.028Z,29.65
2023-02-13T20:08:58.718Z,24.33
2023-02-13T20:11:25.117Z,30.50
2023-02-13T20:13:55.943Z,26.27
2023-02-13T20:16:23.123Z,29.95
2023-02-13T20:18:49.956Z,22.83
2023-02-13T20:21:17.422Z,25.80
2023-02-13T20:23:50.475Z,26.02
2023-02-13T20:26:17.239Z,27.45
2023-02-13T20:28:44.977Z,27.80
2023-02-13T20:31:20.205Z,31.13
2023-02-13T20:33:47.453Z,27.58
2023-02-13T20:36:19.257Z,27.25
2023-02-13T20:38:45.754Z,28.95
2023-02-13T20:41:14.928Z,32.28
2023-02-13T20:43:41.659Z,27.98
2023-02-13T20:46:08.579Z,23.70
2023-02-13T20:48:45.524Z,27.95
2023-02-13T20:51:14.164Z,26.25
2023-02-13T20:53:41.500Z,27.13
2023-02-13T20:56:10.438Z,26.52
2023-02-13T20:58:37.824Z,31.08
2023-02-13T21:01:11.405Z,25.63
2023-02-13T21:03:37.834Z,29.02
2023-02-13T21:06:04.616Z,27.55
2023-02-13T21:08:31.193Z,25.75
2023-02-13T21:11:02.620Z,27.73
2023-02-13T21:13:29.031Z,29.80
2023-02-13T21:16:03.531Z,27.55
2023-02-13T21:18:29.957Z,28.33
2023-02-13T21:20:57.407Z,27.73
2023-02-13T21:23:23.933Z,28.52
2023-02-13T21:25:50.387Z,32.92
2023-02-13T21:28:16.763Z,31.23
2023-02-13T21:30:43.617Z,36.67
2023-02-13T21:33:10.030Z,37.58
2023-02-13T21:35:36.433Z,33.65
2023-02-13T21:38:02.816Z,37.58
2023-02-13T21:40:29.169Z,30.77
2023-02-13T21:42:55.536Z,30.33
2023-02-13T21:45:21.916Z,28.20
2023-02-13T21:47:48.335Z,24.25
2023-02-13T21:50:14.693Z,26.30
2023-02-13T21:52:41.064Z,24.48
2023-02-13T21:55:08.875Z,27.02
2023-02-13T21:57:35.873Z,30.63
2023-02-13T22:00:03.975Z,26.73
2023-02-13T22:02:30.463Z,25.05
2023-02-13T22:04:56.883Z,28.30
2023-02-13T22:07:23.244Z,30.52
2023-02-13T22:09:50.011Z,34.42
2023-02-13T22:12:16.391Z,39.67
2023-02-13T22:14:42.758Z,32.05
2023-02-13T22:17:09.212Z,33.70
2023-02-13T22:19:35.622Z,32.60
2023-02-13T22:22:01.984Z,38.70
2023-02-13T22:24:28.353Z,33.38
2023-02-13T22:26:55.049Z,33.33
2023-02-13T22:29:23.702Z,29.15
2023-02-13T22:31:50.231Z,26.98
2023-02-13T22:34:16.846Z,35.97
2023-02-13T22:36:43.364Z,34.88
2023-02-13T22:39:10.869Z,37.67
2023-02-13T22:41:37.680Z,39.47
2023-02-13T22:44:04.196Z,40.85
2023-02-13T22:46:32.237Z,36.42
2023-02-13T22:48:59.187Z,37.05
2023-02-13T22:51:31.509Z,38.38
2023-02-13T22:56:25.512Z,36.88
2023-02-13T22:58:52.121Z,43.28
2023-02-13T23:01:20.406Z,34.40
2023-02-13T23:03:47.059Z,38.88
2023-02-13T23:06:14.663Z,43.03
2023-02-13T23:08:41.621Z,40.33
2023-02-13T23:11:29.434Z,39.50
2023-02-13T23:13:56.336Z,37.30
2023-02-13T23:16:23.777Z,31.73
2023-02-13T23:18:51.643Z,31.98
2023-02-13T23:21:18.317Z,34.72
2023-02-13T23:23:44.701Z,32.67
2023-02-13T23:26:11.159Z,35.60
2023-02-13T23:28:37.546Z,38.70
2023-02-13T23:31:04.229Z,35.83
2023-02-13T23:33:31.088Z,31.70
2023-02-13T23:35:57.459Z,36.55
2023-02-13T23:38:24.305Z,41.72
2023-02-13T23:40:50.688Z,43.25
2023-02-13T23:43:17.082Z,42.40
2023-02-13T23:45:43.498Z,50.85
2023-02-13T23:48:11.689Z,51.10
2023-02-13T23:50:38.472Z,47.70
2023-02-13T23:53:04.839Z,43.42
2023-02-13T23:55:31.227Z,44.92
2023-02-13T23:57:57.596Z,41.95
